sensor_id;sensor_type;location;lat;lon;timestamp;P1;durP1;ratioP1;P2;durP2;ratioP2
71916;SDS011;59793;46.506;6.674;2022-08-19T00:02:23;8.03;;;4.70;;
71916;SDS011;59793;46.506;6.674;2022-08-19T00:04:48;11.83;;;5.30;;
71916;SDS011;59793;46.506;6.674;2022-08-19T00:07:17;7.13;;;4.70;;
71916;SDS011;59793;46.506;6.674;2022-08-19T00:09:45;6.72;;;4.55;;
71916;SDS011;59793;46.506;6.674;2022-08-19T00:12:11;8.17;;;4.93;;
71916;SDS011;59793;46.506;6.674;2022-08-19T00:14:36;4.67;;;4.27;;
71916;SDS011;59793;46.506;6.674;2022-08-19T00:19:28;5.40;;;4.63;;
71916;SDS011;59793;46.506;6.674;2022-08-19T00:21:54;5.07;;;4.57;;
71916;SDS011;59793;46.506;6.674;2022-08-19T00:24:21;7.13;;;4.35;;
71916;SDS011;59793;46.506;6.674;2022-08-19T00:26:47;5.60;;;4.07;;
71916;SDS011;59793;46.506;6.674;2022-08-19T00:29:13;5.07;;;3.90;;
71916;SDS011;59793;46.506;6.674;2022-08-19T00:31:41;7.80;;;3.85;;
71916;SDS011;59793;46.506;6.674;2022-08-19T00:36:33;5.85;;;3.40;;
71916;SDS011;59793;46.506;6.674;2022-08-19T00:38:58;3.57;;;3.10;;
71916;SDS011;59793;46.506;6.674;2022-08-19T00:41:25;3.88;;;2.70;;
71916;SDS011;59793;46.506;6.674;2022-08-19T00:43:59;6.00;;;2.85;;
71916;SDS011;59793;46.506;6.674;2022-08-19T00:46:32;6.18;;;3.15;;
71916;SDS011;59793;46.506;6.674;2022-08-19T00:49:02;3.38;;;2.72;;
71916;SDS011;59793;46.506;6.674;2022-08-19T00:51:34;3.42;;;3.03;;
71916;SDS011;59793;46.506;6.674;2022-08-19T00:54:00;5.30;;;4.10;;
71916;SDS011;59793;46.506;6.674;2022-08-19T00:56:28;5.32;;;3.13;;
71916;SDS011;59793;46.506;6.674;2022-08-19T00:58:55;3.45;;;2.92;;
71916;SDS011;59793;46.506;6.674;2022-08-19T01:01:22;5.18;;;3.90;;
71916;SDS011;59793;46.506;6.674;2022-08-19T01:03:48;4.20;;;3.00;;
71916;SDS011;59793;46.506;6.674;2022-08-19T01:06:13;4.77;;;3.97;;
71916;SDS011;59793;46.506;6.674;2022-08-19T01:08:39;3.63;;;3.33;;
71916;SDS011;59793;46.506;6.674;2022-08-19T01:11:05;5.33;;;3.67;;
71916;SDS011;59793;46.506;6.674;2022-08-19T01:13:32;3.75;;;3.22;;
71916;SDS011;59793;46.506;6.674;2022-08-19T01:16:05;5.03;;;3.42;;
71916;SDS011;59793;46.506;6.674;2022-08-19T01:18:35;4.45;;;3.63;;
71916;SDS011;59793;46.506;6.674;2022-08-19T01:21:05;7.88;;;3.72;;
71916;SDS011;59793;46.506;6.674;2022-08-19T01:23:35;7.05;;;3.83;;
71916;SDS011;59793;46.506;6.674;2022-08-19T01:26:09;4.65;;;3.60;;
71916;SDS011;59793;46.506;6.674;2022-08-19T01:28:36;3.72;;;3.03;;
71916;SDS011;59793;46.506;6.674;2022-08-19T01:31:03;4.97;;;2.90;;
71916;SDS011;59793;46.506;6.674;2022-08-19T01:33:29;6.00;;;2.88;;
71916;SDS011;59793;46.506;6.674;2022-08-19T01:36:22;4.75;;;2.60;;
71916;SDS011;59793;46.506;6.674;2022-08-19T01:38:48;2.92;;;2.20;;
71916;SDS011;59793;46.506;6.674;2022-08-19T01:41:14;3.33;;;2.28;;
71916;SDS011;59793;46.506;6.674;2022-08-19T01:43:40;3.70;;;3.00;;
71916;SDS011;59793;46.506;6.674;2022-08-19T01:46:05;2.93;;;2.00;;
71916;SDS011;59793;46.506;6.674;2022-08-19T01:48:39;4.40;;;1.50;;
71916;SDS011;59793;46.506;6.674;2022-08-19T01:51:07;2.40;;;1.88;;
71916;SDS011;59793;46.506;6.674;2022-08-19T01:53:33;4.82;;;2.60;;
71916;SDS011;59793;46.506;6.674;2022-08-19T01:56:00;5.60;;;2.25;;
71916;SDS011;59793;46.506;6.674;2022-08-19T01:58:30;5.65;;;2.38;;
71916;SDS011;59793;46.506;6.674;2022-08-19T02:01:00;4.50;;;2.15;;
71916;SDS011;59793;46.506;6.674;2022-08-19T02:03:26;3.43;;;2.07;;
71916;SDS011;59793;46.506;6.674;2022-08-19T02:05:56;2.40;;;1.73;;
71916;SDS011;59793;46.506;6.674;2022-08-19T02:08:25;3.72;;;1.67;;
71916;SDS011;59793;46.506;6.674;2022-08-19T02:10:54;4.35;;;1.70;;
71916;SDS011;59793;46.506;6.674;2022-08-19T02:13:19;5.70;;;1.90;;
71916;SDS011;59793;46.506;6.674;2022-08-19T02:15:45;2.28;;;1.70;;
71916;SDS011;59793;46.506;6.674;2022-08-19T02:18:11;2.50;;;1.77;;
71916;SDS011;59793;46.506;6.674;2022-08-19T02:20:37;2.30;;;1.80;;
71916;SDS011;59793;46.506;6.674;2022-08-19T02:23:04;4.22;;;1.67;;
71916;SDS011;59793;46.506;6.674;2022-08-19T02:25:30;1.95;;;1.50;;
71916;SDS011;59793;46.506;6.674;2022-08-19T02:27:55;2.43;;;1.60;;
71916;SDS011;59793;46.506;6.674;2022-08-19T02:30:21;2.63;;;2.03;;
71916;SDS011;59793;46.506;6.674;2022-08-19T02:32:46;3.13;;;1.70;;
71916;SDS011;59793;46.506;6.674;2022-08-19T02:35:13;5.35;;;1.85;;
71916;SDS011;59793;46.506;6.674;2022-08-19T02:37:39;3.13;;;2.53;;
71916;SDS011;59793;46.506;6.674;2022-08-19T02:40:25;4.20;;;2.38;;
71916;SDS011;59793;46.506;6.674;2022-08-19T02:42:51;3.55;;;1.60;;
71916;SDS011;59793;46.506;6.674;2022-08-19T02:45:16;3.13;;;1.80;;
71916;SDS011;59793;46.506;6.674;2022-08-19T02:47:42;2.67;;;1.60;;
71916;SDS011;59793;46.506;6.674;2022-08-19T02:50:07;7.60;;;1.77;;
71916;SDS011;59793;46.506;6.674;2022-08-19T02:52:33;3.15;;;1.83;;
71916;SDS011;59793;46.506;6.674;2022-08-19T02:54:59;3.38;;;2.05;;
71916;SDS011;59793;46.506;6.674;2022-08-19T02:57:26;3.85;;;1.77;;
71916;SDS011;59793;46.506;6.674;2022-08-19T02:59:52;3.73;;;1.57;;
71916;SDS011;59793;46.506;6.674;2022-08-19T03:02:18;2.75;;;2.00;;
71916;SDS011;59793;46.506;6.674;2022-08-19T03:04:44;3.03;;;1.60;;
71916;SDS011;59793;46.506;6.674;2022-08-19T03:07:09;4.07;;;1.80;;
71916;SDS011;59793;46.506;6.674;2022-08-19T03:09:38;2.42;;;1.70;;
71916;SDS011;59793;46.506;6.674;2022-08-19T03:12:04;2.60;;;1.90;;
71916;SDS011;59793;46.506;6.674;2022-08-19T03:14:30;7.22;;;1.88;;
71916;SDS011;59793;46.506;6.674;2022-08-19T03:16:57;8.05;;;2.53;;
71916;SDS011;59793;46.506;6.674;2022-08-19T03:19:23;7.93;;;2.63;;
71916;SDS011;59793;46.506;6.674;2022-08-19T03:21:48;5.93;;;2.90;;
71916;SDS011;59793;46.506;6.674;2022-08-19T03:24:14;5.90;;;2.00;;
71916;SDS011;59793;46.506;6.674;2022-08-19T03:26:41;9.30;;;2.22;;
71916;SDS011;59793;46.506;6.674;2022-08-19T03:29:09;2.83;;;1.70;;
71916;SDS011;59793;46.506;6.674;2022-08-19T03:31:36;4.57;;;2.10;;
71916;SDS011;59793;46.506;6.674;2022-08-19T03:34:04;3.90;;;2.17;;
71916;SDS011;59793;46.506;6.674;2022-08-19T03:38:56;2.47;;;1.80;;
71916;SDS011;59793;46.506;6.674;2022-08-19T03:41:26;4.43;;;1.88;;
71916;SDS011;59793;46.506;6.674;2022-08-19T03:44:02;3.45;;;2.50;;
71916;SDS011;59793;46.506;6.674;2022-08-19T03:46:30;2.65;;;1.50;;
71916;SDS011;59793;46.506;6.674;2022-08-19T03:48:57;4.15;;;2.15;;
71916;SDS011;59793;46.506;6.674;2022-08-19T03:53:52;2.72;;;1.80;;
71916;SDS011;59793;46.506;6.674;2022-08-19T03:56:19;2.97;;;2.22;;
71916;SDS011;59793;46.506;6.674;2022-08-19T03:58:45;4.35;;;2.10;;
71916;SDS011;59793;46.506;6.674;2022-08-19T04:01:12;3.50;;;2.43;;
71916;SDS011;59793;46.506;6.674;2022-08-19T04:03:39;4.78;;;2.67;;
71916;SDS011;59793;46.506;6.674;2022-08-19T04:08:37;3.80;;;2.75;;
71916;SDS011;59793;46.506;6.674;2022-08-19T04:11:13;3.90;;;2.90;;
71916;SDS011;59793;46.506;6.674;2022-08-19T04:13:41;7.45;;;2.17;;
71916;SDS011;59793;46.506;6.674;2022-08-19T04:16:08;4.45;;;2.67;;
71916;SDS011;59793;46.506;6.674;2022-08-19T04:18:35;3.90;;;2.53;;
71916;SDS011;59793;46.506;6.674;2022-08-19T04:21:03;4.38;;;2.25;;
71916;SDS011;59793;46.506;6.674;2022-08-19T04:23:29;3.83;;;2.42;;
71916;SDS011;59793;46.506;6.674;2022-08-19T04:25:55;7.80;;;2.63;;
71916;SDS011;59793;46.506;6.674;2022-08-19T04:28:21;3.90;;;2.65;;
71916;SDS011;59793;46.506;6.674;2022-08-19T04:30:50;4.82;;;3.00;;
71916;SDS011;59793;46.506;6.674;2022-08-19T04:33:19;4.43;;;2.42;;
71916;SDS011;59793;46.506;6.674;2022-08-19T04:35:48;4.95;;;2.75;;
71916;SDS011;59793;46.506;6.674;2022-08-19T04:38:16;3.28;;;2.75;;
71916;SDS011;59793;46.506;6.674;2022-08-19T04:40:43;3.83;;;2.65;;
71916;SDS011;59793;46.506;6.674;2022-08-19T04:43:30;4.18;;;2.67;;
71916;SDS011;59793;46.506;6.674;2022-08-19T04:45:56;5.35;;;3.13;;
71916;SDS011;59793;46.506;6.674;2022-08-19T04:48:22;5.53;;;3.05;;
71916;SDS011;59793;46.506;6.674;2022-08-19T04:50:51;3.55;;;2.13;;
71916;SDS011;59793;46.506;6.674;2022-08-19T04:53:28;7.07;;;3.40;;
71916;SDS011;59793;46.506;6.674;2022-08-19T04:55:55;4.75;;;2.80;;
71916;SDS011;59793;46.506;6.674;2022-08-19T04:58:22;6.43;;;2.97;;
71916;SDS011;59793;46.506;6.674;2022-08-19T05:00:49;3.42;;;2.45;;
71916;SDS011;59793;46.506;6.674;2022-08-19T05:03:14;4.60;;;3.33;;
71916;SDS011;59793;46.506;6.674;2022-08-19T05:05:41;5.95;;;3.33;;
71916;SDS011;59793;46.506;6.674;2022-08-19T05:08:08;4.03;;;2.47;;
71916;SDS011;59793;46.506;6.674;2022-08-19T05:10:35;4.30;;;2.53;;
71916;SDS011;59793;46.506;6.674;2022-08-19T05:13:02;4.28;;;2.47;;
71916;SDS011;59793;46.506;6.674;2022-08-19T05:17:55;3.30;;;2.40;;
71916;SDS011;59793;46.506;6.674;2022-08-19T05:21:04;3.42;;;2.45;;
71916;SDS011;59793;46.506;6.674;2022-08-19T05:23:50;5.82;;;2.10;;
71916;SDS011;59793;46.506;6.674;2022-08-19T05:26:15;4.57;;;2.03;;
71916;SDS011;59793;46.506;6.674;2022-08-19T05:28:44;4.97;;;2.87;;
71916;SDS011;59793;46.506;6.674;2022-08-19T05:31:10;2.90;;;2.22;;
71916;SDS011;59793;46.506;6.674;2022-08-19T05:33:36;7.43;;;2.23;;
71916;SDS011;59793;46.506;6.674;2022-08-19T05:36:04;2.85;;;1.80;;
71916;SDS011;59793;46.506;6.674;2022-08-19T05:38:32;4.70;;;2.42;;
71916;SDS011;59793;46.506;6.674;2022-08-19T05:41:05;6.28;;;2.28;;
71916;SDS011;59793;46.506;6.674;2022-08-19T05:43:32;5.32;;;2.08;;
71916;SDS011;59793;46.506;6.674;2022-08-19T05:45:58;2.93;;;1.83;;
71916;SDS011;59793;46.506;6.674;2022-08-19T05:48:23;4.30;;;2.23;;
71916;SDS011;59793;46.506;6.674;2022-08-19T05:50:49;3.93;;;1.87;;
71916;SDS011;59793;46.506;6.674;2022-08-19T05:53:15;10.33;;;2.40;;
71916;SDS011;59793;46.506;6.674;2022-08-19T05:55:41;15.13;;;3.47;;
71916;SDS011;59793;46.506;6.674;2022-08-19T05:58:07;4.25;;;2.40;;
71916;SDS011;59793;46.506;6.674;2022-08-19T06:00:33;3.43;;;1.97;;
71916;SDS011;59793;46.506;6.674;2022-08-19T06:03:00;3.97;;;1.90;;
71916;SDS011;59793;46.506;6.674;2022-08-19T06:05:31;2.95;;;2.28;;
71916;SDS011;59793;46.506;6.674;2022-08-19T06:07:57;6.85;;;2.10;;
71916;SDS011;59793;46.506;6.674;2022-08-19T06:10:27;4.63;;;2.30;;
71916;SDS011;59793;46.506;6.674;2022-08-19T06:12:54;9.10;;;3.67;;
71916;SDS011;59793;46.506;6.674;2022-08-19T06:15:21;5.15;;;3.28;;
71916;SDS011;59793;46.506;6.674;2022-08-19T06:17:53;5.65;;;2.95;;
71916;SDS011;59793;46.506;6.674;2022-08-19T06:20:22;6.57;;;3.55;;
71916;SDS011;59793;46.506;6.674;2022-08-19T06:22:48;5.03;;;3.60;;
71916;SDS011;59793;46.506;6.674;2022-08-19T06:25:17;6.80;;;3.22;;
71916;SDS011;59793;46.506;6.674;2022-08-19T06:27:43;5.70;;;4.23;;
71916;SDS011;59793;46.506;6.674;2022-08-19T06:30:09;11.02;;;5.05;;
71916;SDS011;59793;46.506;6.674;2022-08-19T06:32:36;5.85;;;4.05;;
71916;SDS011;59793;46.506;6.674;2022-08-19T06:35:02;9.13;;;5.00;;
71916;SDS011;59793;46.506;6.674;2022-08-19T06:37:27;7.63;;;5.27;;
71916;SDS011;59793;46.506;6.674;2022-08-19T06:39:53;11.00;;;5.60;;
71916;SDS011;59793;46.506;6.674;2022-08-19T06:42:18;12.73;;;5.73;;
71916;SDS011;59793;46.506;6.674;2022-08-19T06:44:44;16.03;;;6.67;;
71916;SDS011;59793;46.506;6.674;2022-08-19T06:47:14;10.75;;;4.75;;
71916;SDS011;59793;46.506;6.674;2022-08-19T06:49:42;10.75;;;4.35;;
71916;SDS011;59793;46.506;6.674;2022-08-19T06:52:08;9.93;;;4.20;;
71916;SDS011;59793;46.506;6.674;2022-08-19T06:54:37;16.33;;;5.30;;
71916;SDS011;59793;46.506;6.674;2022-08-19T06:57:02;13.07;;;5.03;;
71916;SDS011;59793;46.506;6.674;2022-08-19T06:59:28;6.03;;;3.70;;
71916;SDS011;59793;46.506;6.674;2022-08-19T07:01:57;7.25;;;4.28;;
71916;SDS011;59793;46.506;6.674;2022-08-19T07:04:25;7.07;;;4.63;;
71916;SDS011;59793;46.506;6.674;2022-08-19T07:06:57;8.27;;;4.30;;
71916;SDS011;59793;46.506;6.674;2022-08-19T07:09:24;8.40;;;4.43;;
71916;SDS011;59793;46.506;6.674;2022-08-19T07:11:50;7.43;;;4.03;;
71916;SDS011;59793;46.506;6.674;2022-08-19T07:14:18;7.55;;;4.20;;
71916;SDS011;59793;46.506;6.674;2022-08-19T07:16:45;6.38;;;3.95;;
71916;SDS011;59793;46.506;6.674;2022-08-19T07:19:14;7.30;;;4.10;;
71916;SDS011;59793;46.506;6.674;2022-08-19T07:21:41;7.57;;;4.13;;
71916;SDS011;59793;46.506;6.674;2022-08-19T07:24:07;6.25;;;3.83;;
71916;SDS011;59793;46.506;6.674;2022-08-19T07:26:33;6.05;;;4.22;;
71916;SDS011;59793;46.506;6.674;2022-08-19T07:29:03;7.63;;;4.43;;
71916;SDS011;59793;46.506;6.674;2022-08-19T07:33:56;7.93;;;4.78;;
71916;SDS011;59793;46.506;6.674;2022-08-19T07:36:23;9.50;;;5.50;;
71916;SDS011;59793;46.506;6.674;2022-08-19T07:38:55;12.25;;;5.90;;
71916;SDS011;59793;46.506;6.674;2022-08-19T07:41:24;10.35;;;5.82;;
71916;SDS011;59793;46.506;6.674;2022-08-19T07:43:53;5.88;;;4.72;;
71916;SDS011;59793;46.506;6.674;2022-08-19T07:46:20;7.07;;;5.53;;
71916;SDS011;59793;46.506;6.674;2022-08-19T07:48:46;7.33;;;4.47;;
71916;SDS011;59793;46.506;6.674;2022-08-19T07:51:15;14.18;;;5.60;;
71916;SDS011;59793;46.506;6.674;2022-08-19T07:53:44;9.13;;;5.50;;
71916;SDS011;59793;46.506;6.674;2022-08-19T07:56:11;11.70;;;5.18;;
71916;SDS011;59793;46.506;6.674;2022-08-19T07:58:40;6.60;;;4.97;;
71916;SDS011;59793;46.506;6.674;2022-08-19T08:01:12;7.05;;;5.43;;
71916;SDS011;59793;46.506;6.674;2022-08-19T08:03:41;7.78;;;5.57;;
71916;SDS011;59793;46.506;6.674;2022-08-19T08:06:25;5.35;;;4.65;;
71916;SDS011;59793;46.506;6.674;2022-08-19T08:09:09;6.95;;;5.10;;
71916;SDS011;59793;46.506;6.674;2022-08-19T08:11:36;7.43;;;6.28;;
71916;SDS011;59793;46.506;6.674;2022-08-19T08:14:07;10.13;;;5.40;;
71916;SDS011;59793;46.506;6.674;2022-08-19T08:16:37;8.20;;;5.90;;
71916;SDS011;59793;46.506;6.674;2022-08-19T08:19:04;9.68;;;5.53;;
71916;SDS011;59793;46.506;6.674;2022-08-19T08:21:31;8.45;;;5.18;;
71916;SDS011;59793;46.506;6.674;2022-08-19T08:26:25;7.80;;;5.80;;
71916;SDS011;59793;46.506;6.674;2022-08-19T08:28:51;6.47;;;5.80;;
71916;SDS011;59793;46.506;6.674;2022-08-19T08:31:17;7.38;;;5.38;;
71916;SDS011;59793;46.506;6.674;2022-08-19T08:33:46;6.13;;;4.65;;
71916;SDS011;59793;46.506;6.674;2022-08-19T08:36:12;6.07;;;5.13;;
71916;SDS011;59793;46.506;6.674;2022-08-19T08:38:39;5.78;;;4.85;;
71916;SDS011;59793;46.506;6.674;2022-08-19T08:41:09;6.47;;;5.45;;
71916;SDS011;59793;46.506;6.674;2022-08-19T08:43:53;8.15;;;5.20;;
71916;SDS011;59793;46.506;6.674;2022-08-19T08:54:39;7.22;;;5.57;;
71916;SDS011;59793;46.506;6.674;2022-08-19T08:57:10;8.68;;;4.65;;
71916;SDS011;59793;46.506;6.674;2022-08-19T08:59:40;9.55;;;5.55;;
71916;SDS011;59793;46.506;6.674;2022-08-19T09:02:11;6.50;;;4.88;;
71916;SDS011;59793;46.506;6.674;2022-08-19T09:04:36;6.43;;;5.10;;
71916;SDS011;59793;46.506;6.674;2022-08-19T09:15:03;5.10;;;4.60;;
71916;SDS011;59793;46.506;6.674;2022-08-19T09:17:37;6.03;;;5.05;;
71916;SDS011;59793;46.506;6.674;2022-08-19T09:20:06;9.65;;;6.07;;
71916;SDS011;59793;46.506;6.674;2022-08-19T09:22:43;5.85;;;4.78;;
71916;SDS011;59793;46.506;6.674;2022-08-19T09:25:10;5.97;;;4.80;;
71916;SDS011;59793;46.506;6.674;2022-08-19T09:27:37;6.10;;;5.38;;
71916;SDS011;59793;46.506;6.674;2022-08-19T09:30:04;5.88;;;5.28;;
71916;SDS011;59793;46.506;6.674;2022-08-19T09:32:31;5.07;;;4.57;;
71916;SDS011;59793;46.506;6.674;2022-08-19T09:34:57;5.53;;;4.82;;
71916;SDS011;59793;46.506;6.674;2022-08-19T09:37:23;5.80;;;5.20;;
71916;SDS011;59793;46.506;6.674;2022-08-19T09:39:49;5.47;;;4.82;;
71916;SDS011;59793;46.506;6.674;2022-08-19T09:42:16;9.27;;;5.00;;
71916;SDS011;59793;46.506;6.674;2022-08-19T09:44:42;6.35;;;5.03;;
71916;SDS011;59793;46.506;6.674;2022-08-19T09:47:09;7.13;;;5.72;;
71916;SDS011;59793;46.506;6.674;2022-08-19T09:49:39;6.20;;;4.93;;
71916;SDS011;59793;46.506;6.674;2022-08-19T09:52:09;7.10;;;5.22;;
71916;SDS011;59793;46.506;6.674;2022-08-19T09:54:41;6.30;;;5.53;;
71916;SDS011;59793;46.506;6.674;2022-08-19T09:57:07;6.20;;;5.15;;
71916;SDS011;59793;46.506;6.674;2022-08-19T09:59:33;5.73;;;5.13;;
71916;SDS011;59793;46.506;6.674;2022-08-19T10:01:59;6.53;;;5.55;;
71916;SDS011;59793;46.506;6.674;2022-08-19T10:04:25;15.03;;;8.13;;
71916;SDS011;59793;46.506;6.674;2022-08-19T10:07:10;8.13;;;6.22;;
71916;SDS011;59793;46.506;6.674;2022-08-19T10:09:36;11.13;;;6.75;;
71916;SDS011;59793;46.506;6.674;2022-08-19T10:12:03;5.10;;;4.60;;
71916;SDS011;59793;46.506;6.674;2022-08-19T10:14:30;6.95;;;6.03;;
71916;SDS011;59793;46.506;6.674;2022-08-19T10:16:56;6.03;;;4.55;;
71916;SDS011;59793;46.506;6.674;2022-08-19T10:19:23;6.40;;;4.30;;
71916;SDS011;59793;46.506;6.674;2022-08-19T10:21:49;6.47;;;4.82;;
71916;SDS011;59793;46.506;6.674;2022-08-19T10:24:14;6.30;;;4.17;;
71916;SDS011;59793;46.506;6.674;2022-08-19T10:26:40;4.90;;;4.17;;
71916;SDS011;59793;46.506;6.674;2022-08-19T10:29:09;6.55;;;4.68;;
71916;SDS011;59793;46.506;6.674;2022-08-19T10:31:36;4.22;;;3.83;;
71916;SDS011;59793;46.506;6.674;2022-08-19T10:34:02;4.93;;;4.17;;
71916;SDS011;59793;46.506;6.674;2022-08-19T10:36:29;5.95;;;5.00;;
71916;SDS011;59793;46.506;6.674;2022-08-19T10:38:57;5.35;;;4.45;;
71916;SDS011;59793;46.506;6.674;2022-08-19T10:41:32;5.68;;;4.40;;
71916;SDS011;59793;46.506;6.674;2022-08-19T10:44:01;5.60;;;4.35;;
71916;SDS011;59793;46.506;6.674;2022-08-19T10:46:30;7.57;;;4.80;;
71916;SDS011;59793;46.506;6.674;2022-08-19T10:48:57;5.15;;;4.32;;
71916;SDS011;59793;46.506;6.674;2022-08-19T10:51:24;4.50;;;4.07;;
71916;SDS011;59793;46.506;6.674;2022-08-19T10:54:08;5.03;;;4.22;;
71916;SDS011;59793;46.506;6.674;2022-08-19T10:56:36;5.22;;;4.78;;
71916;SDS011;59793;46.506;6.674;2022-08-19T10:59:17;5.95;;;4.65;;
71916;SDS011;59793;46.506;6.674;2022-08-19T11:01:46;7.03;;;4.55;;
71916;SDS011;59793;46.506;6.674;2022-08-19T11:04:13;4.93;;;4.43;;
71916;SDS011;59793;46.506;6.674;2022-08-19T11:06:43;6.35;;;4.90;;
71916;SDS011;59793;46.506;6.674;2022-08-19T11:09:13;5.93;;;5.32;;
71916;SDS011;59793;46.506;6.674;2022-08-19T11:11:42;6.72;;;4.47;;
71916;SDS011;59793;46.506;6.674;2022-08-19T11:14:10;5.22;;;4.72;;
71916;SDS011;59793;46.506;6.674;2022-08-19T11:16:37;17.40;;;7.70;;
71916;SDS011;59793;46.506;6.674;2022-08-19T11:19:08;5.78;;;5.18;;
71916;SDS011;59793;46.506;6.674;2022-08-19T11:21:38;9.07;;;6.13;;
71916;SDS011;59793;46.506;6.674;2022-08-19T11:24:10;20.25;;;9.60;;
71916;SDS011;59793;46.506;6.674;2022-08-19T11:26:43;8.18;;;5.75;;
71916;SDS011;59793;46.506;6.674;2022-08-19T11:29:12;7.47;;;6.53;;
71916;SDS011;59793;46.506;6.674;2022-08-19T11:31:42;5.22;;;4.72;;
71916;SDS011;59793;46.506;6.674;2022-08-19T11:34:27;6.63;;;5.72;;
71916;SDS011;59793;46.506;6.674;2022-08-19T11:36:54;6.75;;;6.00;;
71916;SDS011;59793;46.506;6.674;2022-08-19T11:39:49;8.85;;;6.07;;
71916;SDS011;59793;46.506;6.674;2022-08-19T11:42:15;9.27;;;6.72;;
71916;SDS011;59793;46.506;6.674;2022-08-19T11:45:04;6.35;;;5.18;;
71916;SDS011;59793;46.506;6.674;2022-08-19T11:47:30;11.32;;;5.45;;
71916;SDS011;59793;46.506;6.674;2022-08-19T11:50:22;7.30;;;4.75;;
71916;SDS011;59793;46.506;6.674;2022-08-19T11:52:54;5.38;;;4.88;;
71916;SDS011;59793;46.506;6.674;2022-08-19T11:55:29;5.25;;;4.75;;
71916;SDS011;59793;46.506;6.674;2022-08-19T11:57:54;7.70;;;5.00;;
71916;SDS011;59793;46.506;6.674;2022-08-19T12:00:20;4.33;;;3.50;;
71916;SDS011;59793;46.506;6.674;2022-08-19T12:02:46;4.82;;;4.13;;
71916;SDS011;59793;46.506;6.674;2022-08-19T12:05:12;6.43;;;4.30;;
71916;SDS011;59793;46.506;6.674;2022-08-19T12:07:37;5.93;;;3.90;;
71916;SDS011;59793;46.506;6.674;2022-08-19T12:10:03;5.50;;;4.57;;
71916;SDS011;59793;46.506;6.674;2022-08-19T12:12:29;4.67;;;3.93;;
71916;SDS011;59793;46.506;6.674;2022-08-19T12:14:58;5.50;;;4.47;;
71916;SDS011;59793;46.506;6.674;2022-08-19T12:17:24;6.65;;;4.43;;
71916;SDS011;59793;46.506;6.674;2022-08-19T12:19:52;4.95;;;4.43;;
71916;SDS011;59793;46.506;6.674;2022-08-19T12:22:18;5.00;;;4.18;;
71916;SDS011;59793;46.506;6.674;2022-08-19T12:24:45;9.63;;;4.57;;
71916;SDS011;59793;46.506;6.674;2022-08-19T12:27:11;4.53;;;3.75;;
71916;SDS011;59793;46.506;6.674;2022-08-19T12:29:37;8.40;;;4.68;;
71916;SDS011;59793;46.506;6.674;2022-08-19T12:32:21;5.47;;;4.68;;
71916;SDS011;59793;46.506;6.674;2022-08-19T12:34:48;4.15;;;3.75;;
71916;SDS011;59793;46.506;6.674;2022-08-19T12:39:42;4.43;;;4.03;;
71916;SDS011;59793;46.506;6.674;2022-08-19T12:42:22;4.45;;;4.05;;
71916;SDS011;59793;46.506;6.674;2022-08-19T12:49:52;4.72;;;4.05;;
71916;SDS011;59793;46.506;6.674;2022-08-19T12:52:20;3.97;;;3.58;;
71916;SDS011;59793;46.506;6.674;2022-08-19T12:54:53;5.22;;;4.28;;
71916;SDS011;59793;46.506;6.674;2022-08-19T12:57:19;5.60;;;4.05;;
71916;SDS011;59793;46.506;6.674;2022-08-19T12:59:45;5.65;;;4.60;;
71916;SDS011;59793;46.506;6.674;2022-08-19T13:02:10;4.95;;;4.30;;
71916;SDS011;59793;46.506;6.674;2022-08-19T13:04:37;5.55;;;4.35;;
71916;SDS011;59793;46.506;6.674;2022-08-19T13:07:06;5.65;;;4.68;;
71916;SDS011;59793;46.506;6.674;2022-08-19T13:09:33;5.60;;;5.10;;
71916;SDS011;59793;46.506;6.674;2022-08-19T13:11:59;4.50;;;4.10;;
71916;SDS011;59793;46.506;6.674;2022-08-19T13:14:28;5.05;;;4.55;;
71916;SDS011;59793;46.506;6.674;2022-08-19T13:16:56;4.88;;;4.00;;
71916;SDS011;59793;46.506;6.674;2022-08-19T13:19:22;5.13;;;4.63;;
71916;SDS011;59793;46.506;6.674;2022-08-19T13:21:50;6.38;;;4.50;;
71916;SDS011;59793;46.506;6.674;2022-08-19T13:24:19;5.10;;;4.60;;
71916;SDS011;59793;46.506;6.674;2022-08-19T13:26:45;5.80;;;5.05;;
71916;SDS011;59793;46.506;6.674;2022-08-19T13:29:11;7.90;;;4.72;;
71916;SDS011;59793;46.506;6.674;2022-08-19T13:31:55;5.25;;;4.72;;
71916;SDS011;59793;46.506;6.674;2022-08-19T13:34:39;5.45;;;4.95;;
71916;SDS011;59793;46.506;6.674;2022-08-19T13:37:05;6.25;;;4.80;;
71916;SDS011;59793;46.506;6.674;2022-08-19T13:39:31;5.57;;;5.07;;
71916;SDS011;59793;46.506;6.674;2022-08-19T13:41:58;6.00;;;5.20;;
71916;SDS011;59793;46.506;6.674;2022-08-19T13:44:26;6.55;;;5.22;;
71916;SDS011;59793;46.506;6.674;2022-08-19T13:47:03;5.85;;;5.22;;
71916;SDS011;59793;46.506;6.674;2022-08-19T13:49:31;5.30;;;4.80;;
71916;SDS011;59793;46.506;6.674;2022-08-19T13:51:57;5.90;;;5.10;;
71916;SDS011;59793;46.506;6.674;2022-08-19T13:54:22;5.67;;;4.90;;
71916;SDS011;59793;46.506;6.674;2022-08-19T13:56:48;6.63;;;6.03;;
71916;SDS011;59793;46.506;6.674;2022-08-19T13:59:13;6.00;;;5.40;;
71916;SDS011;59793;46.506;6.674;2022-08-19T14:01:39;6.40;;;5.68;;
71916;SDS011;59793;46.506;6.674;2022-08-19T14:04:07;4.93;;;4.43;;
71916;SDS011;59793;46.506;6.674;2022-08-19T14:06:34;5.80;;;5.20;;
71916;SDS011;59793;46.506;6.674;2022-08-19T14:09:00;5.28;;;4.72;;
71916;SDS011;59793;46.506;6.674;2022-08-19T14:11:27;4.55;;;4.13;;
71916;SDS011;59793;46.506;6.674;2022-08-19T14:16:20;6.07;;;4.72;;
71916;SDS011;59793;46.506;6.674;2022-08-19T14:18:46;8.13;;;6.03;;
71916;SDS011;59793;46.506;6.674;2022-08-19T14:21:29;7.65;;;6.00;;
71916;SDS011;59793;46.506;6.674;2022-08-19T14:24:01;5.97;;;5.05;;
71916;SDS011;59793;46.506;6.674;2022-08-19T14:26:52;6.30;;;5.10;;
71916;SDS011;59793;46.506;6.674;2022-08-19T14:29:41;9.82;;;6.13;;
71916;SDS011;59793;46.506;6.674;2022-08-19T14:32:30;5.97;;;5.38;;
71916;SDS011;59793;46.506;6.674;2022-08-19T14:34:57;6.53;;;5.75;;
71916;SDS011;59793;46.506;6.674;2022-08-19T14:37:22;5.80;;;4.87;;
71916;SDS011;59793;46.506;6.674;2022-08-19T14:39:50;6.43;;;5.57;;
71916;SDS011;59793;46.506;6.674;2022-08-19T14:42:16;9.35;;;8.07;;
71916;SDS011;59793;46.506;6.674;2022-08-19T14:47:38;8.25;;;7.40;;
71916;SDS011;59793;46.506;6.674;2022-08-19T14:50:08;10.45;;;7.63;;
71916;SDS011;59793;46.506;6.674;2022-08-19T14:52:37;7.70;;;6.90;;
71916;SDS011;59793;46.506;6.674;2022-08-19T14:55:05;8.95;;;7.78;;
71916;SDS011;59793;46.506;6.674;2022-08-19T14:57:32;8.63;;;7.00;;
71916;SDS011;59793;46.506;6.674;2022-08-19T15:00:00;8.13;;;7.32;;
71916;SDS011;59793;46.506;6.674;2022-08-19T15:02:26;9.00;;;7.43;;
71916;SDS011;59793;46.506;6.674;2022-08-19T15:04:51;10.40;;;6.60;;
71916;SDS011;59793;46.506;6.674;2022-08-19T15:07:17;8.07;;;7.20;;
71916;SDS011;59793;46.506;6.674;2022-08-19T15:09:43;9.45;;;7.03;;
71916;SDS011;59793;46.506;6.674;2022-08-19T15:12:08;7.67;;;6.87;;
71916;SDS011;59793;46.506;6.674;2022-08-19T15:14:35;8.32;;;7.53;;
71916;SDS011;59793;46.506;6.674;2022-08-19T15:17:03;8.23;;;7.43;;
71916;SDS011;59793;46.506;6.674;2022-08-19T15:19:30;7.85;;;7.05;;
71916;SDS011;59793;46.506;6.674;2022-08-19T15:22:23;8.10;;;7.30;;
71916;SDS011;59793;46.506;6.674;2022-08-19T15:25:02;8.75;;;6.90;;
71916;SDS011;59793;46.506;6.674;2022-08-19T15:27:31;7.72;;;7.03;;
71916;SDS011;59793;46.506;6.674;2022-08-19T15:30:00;7.90;;;7.10;;
71916;SDS011;59793;46.506;6.674;2022-08-19T15:34:55;7.93;;;7.05;;
71916;SDS011;59793;46.506;6.674;2022-08-19T15:39:56;8.25;;;7.45;;
71916;SDS011;59793;46.506;6.674;2022-08-19T15:42:22;7.90;;;7.20;;
71916;SDS011;59793;46.506;6.674;2022-08-19T15:44:48;10.03;;;7.30;;
71916;SDS011;59793;46.506;6.674;2022-08-19T15:47:14;8.27;;;7.50;;
71916;SDS011;59793;46.506;6.674;2022-08-19T15:49:42;8.23;;;7.43;;
71916;SDS011;59793;46.506;6.674;2022-08-19T15:52:09;8.45;;;7.43;;